Time;durP1;ratioP1;P1;durP2;ratioP2;P2;SDS_P1;SDS_P2;PMS_P1;PMS_P2;Temp;Humidity;BMP_temperature;BMP_pressure;BME280_temperature;BME280_humidity;BME280_pressure;Samples;Min_cycle;Max_cycle;Signal;HPM_P1;HPM_P2
2021/09/22 00:00:58;;;;;;;19.03;12.43;;;;;;;14.20;100.00;102067.94;4993751;28;20235;-74
2021/09/22 00:03:23;;;;;;;20.37;13.47;;;;;;;14.13;100.00;102070.06;4994269;28;20176;-74
2021/09/22 00:05:52;;;;;;;21.70;12.60;;;;;;;14.04;100.00;102077.09;5010084;28;20227;-76
2021/09/22 00:08:19;;;;;;;19.03;12.80;;;;;;;14.08;100.00;102070.84;4977647;28;20188;-73
2021/09/22 00:10:47;;;;;;;20.30;12.77;;;;;;;14.12;100.00;102073.88;5029455;28;20274;-73
2021/09/22 00:13:18;;;;;;;23.47;13.30;;;;;;;14.07;100.00;102076.59;5014492;28;20594;-73
2021/09/22 00:15:45;;;;;;;22.33;12.43;;;;;;;14.24;100.00;102072.63;5012697;28;20649;-73
2021/09/22 00:18:16;;;;;;;23.13;13.27;;;;;;;14.10;100.00;102070.56;4981105;28;20185;-74
2021/09/22 00:20:41;;;;;;;23.23;13.73;;;;;;;14.06;100.00;102069.47;5012193;28;20682;-74
2021/09/22 00:23:09;;;;;;;23.80;13.03;;;;;;;14.01;100.00;102061.16;4981177;28;20185;-73
2021/09/22 00:25:36;;;;;;;21.20;12.87;;;;;;;14.13;100.00;102064.59;5011893;28;20243;-73
2021/09/22 00:28:04;;;;;;;23.07;13.50;;;;;;;14.05;100.00;102065.91;5023302;28;20557;-73
2021/09/22 00:30:30;;;;;;;26.53;13.67;;;;;;;14.02;100.00;102068.34;5024864;28;20220;-75
2021/09/22 00:33:01;;;;;;;19.97;12.53;;;;;;;13.94;100.00;102071.50;5016433;28;20535;-75
2021/09/22 00:35:31;;;;;;;22.43;12.60;;;;;;;14.01;100.00;102075.72;5006466;28;20268;-75
2021/09/22 00:37:57;;;;;;;20.20;12.73;;;;;;;13.93;100.00;102076.13;5013324;28;20184;-73
2021/09/22 00:40:22;;;;;;;22.67;13.33;;;;;;;14.05;100.00;102084.22;5022456;28;20228;-74
2021/09/22 00:42:55;;;;;;;24.20;14.03;;;;;;;14.05;100.00;102089.69;4981129;28;20188;-74
2021/09/22 00:45:21;;;;;;;21.30;13.03;;;;;;;13.98;100.00;102083.56;4989014;28;20695;-74
2021/09/22 00:47:46;;;;;;;22.17;13.53;;;;;;;13.98;100.00;102084.38;4996921;28;20188;-74
2021/09/22 00:50:27;;;;;;;21.50;13.43;;;;;;;13.97;100.00;102092.84;5010336;28;20220;-74
2021/09/22 00:52:53;;;;;;;20.90;12.47;;;;;;;14.08;100.00;102089.16;5032655;28;20188;-73
2021/09/22 00:55:21;;;;;;;22.43;12.80;;;;;;;14.00;100.00;102092.31;4992228;28;20718;-73
2021/09/22 00:57:52;;;;;;;21.87;13.17;;;;;;;14.06;100.00;102085.84;5004768;28;20181;-73
2021/09/22 01:00:25;;;;;;;20.90;11.93;;;;;;;14.12;100.00;102095.72;5006005;28;20586;-75
2021/09/22 01:02:50;;;;;;;20.43;12.70;;;;;;;14.15;100.00;102089.75;5016239;28;20181;-75
2021/09/22 01:05:25;;;;;;;20.60;12.33;;;;;;;14.11;100.00;102094.09;5023022;28;20733;-73
2021/09/22 01:07:50;;;;;;;18.77;11.87;;;;;;;14.10;100.00;102092.44;4980848;28;20191;-74
2021/09/22 01:10:16;;;;;;;22.63;11.90;;;;;;;14.07;100.00;102090.25;4987815;28;20184;-74
2021/09/22 01:12:42;;;;;;;16.53;11.23;;;;;;;14.13;100.00;102097.41;5032172;28;20311;-74
2021/09/22 01:15:20;;;;;;;24.10;11.67;;;;;;;14.10;100.00;102086.97;5011650;28;20284;-74
2021/09/22 01:17:51;;;;;;;18.37;11.20;;;;;;;14.05;100.00;102089.69;4996399;28;20180;-74
2021/09/22 01:20:18;;;;;;;17.67;11.57;;;;;;;14.07;100.00;102099.25;5002625;28;20708;-74
2021/09/22 01:22:45;;;;;;;22.43;10.93;;;;;;;13.96;100.00;102099.41;5015513;28;20180;-75
2021/09/22 01:25:13;;;;;;;22.83;11.03;;;;;;;13.94;100.00;102093.38;5025453;28;20201;-75
2021/09/22 01:27:48;;;;;;;20.27;11.30;;;;;;;13.88;100.00;102099.84;5029148;28;20698;-73
2021/09/22 01:30:16;;;;;;;21.20;11.50;;;;;;;13.85;100.00;102100.38;5024800;28;20230;-76
2021/09/22 01:32:55;;;;;;;23.40;12.10;;;;;;;13.75;100.00;102078.41;5012777;28;20201;-75
2021/09/22 01:35:40;;;;;;;20.83;11.10;;;;;;;13.74;100.00;102087.72;5018689;28;20213;-75
2021/09/22 01:38:20;;;;;;;19.57;10.70;;;;;;;13.64;100.00;102082.13;4967335;28;20184;-75
2021/09/22 01:41:00;;;;;;;22.47;11.80;;;;;;;13.78;100.00;102094.28;4979585;28;20225;-75
2021/09/22 01:43:29;;;;;;;19.60;10.73;;;;;;;13.62;100.00;102089.75;4979940;28;20185;-73
2021/09/22 01:45:55;;;;;;;21.80;11.30;;;;;;;13.68;100.00;102087.91;5009883;28;20220;-75
2021/09/22 01:48:24;;;;;;;18.47;10.60;;;;;;;13.65;100.00;102082.97;4999110;28;20219;-75
2021/09/22 01:50:55;;;;;;;17.27;11.07;;;;;;;13.65;100.00;102078.31;5016238;28;20231;-75
2021/09/22 01:53:23;;;;;;;20.37;11.43;;;;;;;13.67;100.00;102084.34;5016663;28;20670;-76
2021/09/22 01:55:52;;;;;;;20.80;10.90;;;;;;;13.70;100.00;102086.59;5009968;28;20227;-76
2021/09/22 01:58:21;;;;;;;18.30;11.57;;;;;;;13.57;100.00;102081.53;4996154;28;20585;-74
2021/09/22 02:01:04;;;;;;;17.73;10.50;;;;;;;13.55;100.00;102089.16;5002103;28;20235;-74
2021/09/22 02:03:45;;;;;;;20.33;11.93;;;;;;;13.62;100.00;102078.81;5018694;28;20192;-74
2021/09/22 02:06:18;;;;;;;24.47;11.73;;;;;;;13.66;100.00;102080.00;5018775;28;20289;-74
2021/09/22 02:08:44;;;;;;;21.90;12.37;;;;;;;13.73;100.00;102080.59;5015096;28;20181;-73
2021/09/22 02:11:23;;;;;;;25.57;12.03;;;;;;;13.65;100.00;102066.59;4996485;28;20217;-76
2021/09/22 02:13:51;;;;;;;24.90;12.73;;;;;;;13.62;100.00;102076.09;5011104;28;20215;-75
2021/09/22 02:16:22;;;;;;;24.27;12.47;;;;;;;13.55;100.00;102072.78;5003867;28;20812;-74
2021/09/22 02:19:06;;;;;;;23.17;12.03;;;;;;;13.68;100.00;102075.09;5032726;28;20253;-74
2021/09/22 02:21:37;;;;;;;22.50;12.77;;;;;;;13.77;100.00;102081.72;4995209;28;20221;-73
2021/09/22 02:24:08;;;;;;;22.70;12.67;;;;;;;13.85;100.00;102092.19;4994311;28;20200;-75
2021/09/22 02:26:39;;;;;;;22.57;12.23;;;;;;;13.79;100.00;102089.66;5000499;28;20221;-75
2021/09/22 02:29:07;;;;;;;24.07;12.20;;;;;;;13.65;100.00;102083.78;5016745;28;20242;-73
2021/09/22 02:31:39;;;;;;;23.07;11.87;;;;;;;13.64;100.00;102079.41;4993102;28;20243;-73
2021/09/22 02:34:07;;;;;;;20.53;10.67;;;;;;;13.55;100.00;102085.56;5005932;28;20203;-75
2021/09/22 02:36:34;;;;;;;21.23;11.53;;;;;;;13.63;100.00;102085.94;4997274;28;20221;-75
2021/09/22 02:39:04;;;;;;;14.93;9.90;;;;;;;13.80;100.00;102074.94;4987026;28;20192;-75
2021/09/22 02:41:34;;;;;;;14.97;8.93;;;;;;;13.62;100.00;102083.47;4999020;28;20296;-76
2021/09/22 02:44:07;;;;;;;15.10;9.27;;;;;;;13.53;100.00;102074.94;4994935;28;20251;-75
2021/09/22 02:46:42;;;;;;;14.23;8.10;;;;;;;13.61;100.00;102077.19;5002521;28;20223;-75
2021/09/22 02:49:10;;;;;;;12.53;8.30;;;;;;;13.68;100.00;102087.91;4997426;28;20548;-74
2021/09/22 02:51:39;;;;;;;13.20;8.03;;;;;;;13.40;100.00;102079.94;4999940;28;20224;-75
2021/09/22 02:54:09;;;;;;;13.27;8.47;;;;;;;13.42;100.00;102079.69;5014135;28;20196;-73
2021/09/22 02:56:44;;;;;;;15.57;8.20;;;;;;;13.71;100.00;102084.66;4998363;28;20222;-75
2021/09/22 02:59:20;;;;;;;15.63;8.13;;;;;;;13.64;100.00;102084.03;5015715;28;20284;-75
2021/09/22 03:01:50;;;;;;;14.33;8.83;;;;;;;13.39;100.00;102077.47;4999714;28;20208;-72
2021/09/22 03:04:16;;;;;;;13.33;8.10;;;;;;;13.40;100.00;102079.94;4997882;28;20251;-74
2021/09/22 03:06:41;;;;;;;12.80;8.40;;;;;;;13.35;100.00;102082.66;4997145;28;20219;-75
2021/09/22 03:09:09;;;;;;;13.87;8.73;;;;;;;13.48;100.00;102083.06;5013966;28;20283;-75
2021/09/22 03:11:37;;;;;;;15.20;9.03;;;;;;;13.68;100.00;102083.28;5029595;28;20242;-74
2021/09/22 03:14:05;;;;;;;15.33;9.53;;;;;;;13.82;100.00;102074.38;4981535;28;20668;-75
2021/09/22 03:16:39;;;;;;;15.73;9.60;;;;;;;13.79;100.00;102079.56;4997458;28;20606;-75
2021/09/22 03:19:05;;;;;;;12.37;8.37;;;;;;;13.56;100.00;102074.41;4977571;28;20676;-74
2021/09/22 03:21:31;;;;;;;11.53;8.47;;;;;;;13.43;100.00;102073.19;4993993;28;20209;-75
2021/09/22 03:23:57;;;;;;;13.03;8.07;;;;;;;13.43;100.00;102081.38;5030310;28;20204;-74
2021/09/22 03:26:25;;;;;;;15.50;7.93;;;;;;;13.25;100.00;102076.22;4990570;28;20219;-74
2021/09/22 03:28:55;;;;;;;16.47;8.33;;;;;;;13.08;100.00;102080.94;5001938;28;20272;-74
2021/09/22 03:31:21;;;;;;;13.43;8.50;;;;;;;13.08;100.00;102078.22;5002998;28;20617;-74
2021/09/22 03:33:48;;;;;;;16.93;9.33;;;;;;;13.16;100.00;102085.94;5006299;28;20196;-74
2021/09/22 03:36:16;;;;;;;17.90;9.93;;;;;;;13.16;100.00;102091.41;5011934;28;20208;-74
2021/09/22 03:38:41;;;;;;;17.93;9.93;;;;;;;13.24;100.00;102088.22;5009960;28;20172;-74
2021/09/22 03:41:09;;;;;;;17.17;10.13;;;;;;;13.33;100.00;102084.81;4996684;28;20214;-75
2021/09/22 03:43:37;;;;;;;14.63;9.60;;;;;;;13.36;100.00;102086.19;5029819;28;20184;-74
2021/09/22 03:46:05;;;;;;;20.13;10.27;;;;;;;13.47;100.00;102084.13;5013129;28;20724;-74
2021/09/22 03:48:33;;;;;;;16.60;9.40;;;;;;;13.57;100.00;102087.00;5027147;28;20338;-74
2021/09/22 03:51:01;;;;;;;15.43;9.80;;;;;;;13.47;100.00;102084.13;5031047;28;20220;-74
2021/09/22 03:53:38;;;;;;;17.67;10.23;;;;;;;13.40;100.00;102090.06;5017926;28;20185;-74
2021/09/22 03:56:07;;;;;;;20.77;10.10;;;;;;;13.34;100.00;102082.91;5008397;28;20226;-75
2021/09/22 03:58:33;;;;;;;22.90;10.00;;;;;;;13.45;100.00;102073.75;5003072;28;20180;-75
2021/09/22 04:01:01;;;;;;;22.80;12.10;;;;;;;13.44;100.00;102080.28;5018658;28;20262;-74
2021/09/22 04:03:37;;;;;;;22.50;11.83;;;;;;;13.44;100.00;102083.00;5012240;28;20651;-74
2021/09/22 04:06:07;;;;;;;30.43;12.93;;;;;;;13.23;100.00;102084.66;5031615;28;20207;-75
2021/09/22 04:08:35;;;;;;;28.87;12.37;;;;;;;13.34;100.00;102071.97;4997111;28;20272;-74
2021/09/22 04:11:05;;;;;;;23.13;12.07;;;;;;;13.22;100.00;102074.00;4981409;28;20304;-75
2021/09/22 04:13:34;;;;;;;21.20;13.03;;;;;;;13.30;100.00;102074.38;4987535;28;20605;-75
2021/09/22 04:16:06;;;;;;;23.43;12.27;;;;;;;13.19;100.00;102080.00;4981079;28;20217;-74
2021/09/22 04:18:37;;;;;;;29.27;13.47;;;;;;;13.15;100.00;102070.66;4991420;28;20568;-75
2021/09/22 04:21:05;;;;;;;24.53;13.27;;;;;;;13.17;100.00;102071.22;5032504;28;20215;-75
2021/09/22 04:23:31;;;;;;;24.90;13.00;;;;;;;13.29;100.00;102067.25;5008056;28;20255;-75
2021/09/22 04:25:58;;;;;;;26.00;13.00;;;;;;;13.23;100.00;102070.22;4998437;28;20219;-75
2021/09/22 04:28:24;;;;;;;27.63;13.07;;;;;;;13.23;100.00;102067.47;5024822;28;20214;-75
2021/09/22 04:31:10;;;;;;;25.23;14.27;;;;;;;13.18;100.00;102070.13;5032868;28;20264;-74
2021/09/22 04:33:57;;;;;;;25.03;13.30;;;;;;;13.23;100.00;102078.41;5008964;28;20219;-75
2021/09/22 04:36:41;;;;;;;27.33;14.53;;;;;;;13.26;100.00;102081.44;5001219;28;20247;-75
2021/09/22 04:39:25;;;;;;;30.47;18.03;;;;;;;13.16;100.00;102062.19;5012927;28;20191;-76
2021/09/22 04:42:09;;;;;;;31.90;15.30;;;;;;;13.35;100.00;102066.28;5011112;28;20274;-75
2021/09/22 04:44:53;;;;;;;31.40;15.20;;;;;;;13.24;100.00;102074.56;5001096;28;20267;-75
2021/09/22 04:47:40;;;;;;;29.13;14.80;;;;;;;13.41;100.00;102075.34;5031160;28;20258;-75
2021/09/22 04:50:25;;;;;;;31.77;15.13;;;;;;;13.35;100.00;102071.72;4998927;28;20274;-75
2021/09/22 04:53:09;;;;;;;24.77;14.77;;;;;;;13.22;100.00;102074.84;5001563;28;20235;-75
2021/09/22 04:55:54;;;;;;;29.00;15.10;;;;;;;13.32;100.00;102083.13;5012585;28;20265;-75
2021/09/22 04:58:38;;;;;;;30.60;15.13;;;;;;;13.26;100.00;102077.88;5020305;28;20191;-75
2021/09/22 05:01:25;;;;;;;28.67;14.87;;;;;;;13.19;100.00;102088.16;5011736;28;20669;-75
2021/09/22 05:04:12;;;;;;;31.07;16.43;;;;;;;13.26;100.00;102089.63;5014119;28;20362;-76
2021/09/22 05:07:03;;;;;;;40.03;17.57;;;;;;;13.27;100.00;102082.25;4990062;28;20221;-76
2021/09/22 05:09:48;;;;;;;33.17;16.50;;;;;;;13.42;100.00;102090.63;5010996;28;20199;-76
2021/09/22 05:12:34;;;;;;;40.13;15.33;;;;;;;13.45;100.00;102095.56;5006990;28;20355;-77
2021/09/22 05:15:21;;;;;;;28.53;15.67;;;;;;;13.42;100.00;102101.53;5012169;28;20251;-75
2021/09/22 05:18:09;;;;;;;31.70;16.37;;;;;;;13.36;100.00;102099.84;5018880;28;20234;-75
2021/09/22 05:21:14;;;;;;;39.37;16.90;;;;;;;13.52;100.00;102105.22;5001340;28;20220;-76
2021/09/22 05:24:00;;;;;;;35.20;16.33;;;;;;;13.38;100.00;102114.06;4996982;28;20752;-75
2021/09/22 05:26:46;;;;;;;37.37;17.60;;;;;;;13.27;100.00;102110.38;4989937;28;20247;-74
2021/09/22 05:29:31;;;;;;;28.03;17.17;;;;;;;13.37;100.00;102106.94;5023910;28;20681;-75
2021/09/22 05:32:15;;;;;;;31.90;17.00;;;;;;;13.49;100.00;102106.53;5015322;28;20283;-75
2021/09/22 05:34:59;;;;;;;39.47;21.97;;;;;;;13.49;100.00;102106.53;5004054;28;20228;-74
2021/09/22 05:37:43;;;;;;;45.67;24.87;;;;;;;13.41;100.00;102106.19;5006284;28;20216;-74
2021/09/22 05:40:29;;;;;;;34.90;20.37;;;;;;;13.34;100.00;102104.72;5016546;28;20226;-75
2021/09/22 05:43:14;;;;;;;31.67;20.63;;;;;;;13.45;100.00;102103.78;5011958;28;20204;-76
2021/09/22 05:46:01;;;;;;;34.13;19.43;;;;;;;13.56;100.00;102109.09;5029403;28;20223;-74
2021/09/22 05:48:47;;;;;;;36.37;19.57;;;;;;;13.56;100.00;102106.34;5029070;28;20216;-74
2021/09/22 05:51:33;;;;;;;38.60;18.37;;;;;;;13.50;100.00;102108.19;4983402;28;20706;-74
2021/09/22 05:54:17;;;;;;;35.27;18.33;;;;;;;13.53;100.00;102106.84;5015554;28;20218;-75
2021/09/22 05:57:02;;;;;;;37.77;18.03;;;;;;;13.59;100.00;102112.13;5009649;28;20281;-75
2021/09/22 05:59:49;;;;;;;34.30;18.70;;;;;;;13.70;100.00;102113.88;5004978;28;20624;-74
2021/09/22 06:02:38;;;;;;;35.70;19.10;;;;;;;13.83;100.00;102097.09;5016252;28;20208;-75
2021/09/22 06:05:24;;;;;;;31.23;19.00;;;;;;;13.99;100.00;102096.13;5014556;28;20698;-75
2021/09/22 06:07:56;;;;;;;30.07;19.90;;;;;;;13.91;100.00;102093.88;5015810;28;20203;-75
2021/09/22 06:10:55;;;;;;;30.80;18.90;;;;;;;14.02;100.00;102090.19;5018900;28;20318;-74
2021/09/22 06:13:39;;;;;;;30.47;19.27;;;;;;;13.95;100.00;102089.53;5005723;28;20189;-75
2021/09/22 06:16:07;;;;;;;35.37;19.50;;;;;;;13.87;100.00;102092.75;5020851;28;20234;-75
2021/09/22 06:18:35;;;;;;;34.17;19.30;;;;;;;14.08;100.00;102095.44;5015294;28;20191;-74
2021/09/22 06:21:04;;;;;;;43.33;19.70;;;;;;;13.90;100.00;102087.59;4998267;28;20299;-74
2021/09/22 06:23:32;;;;;;;31.10;19.87;;;;;;;13.91;100.00;102093.88;5014676;28;20725;-74
2021/09/22 06:25:58;;;;;;;37.73;20.80;;;;;;;13.99;100.00;102096.13;4994165;28;20295;-74
2021/09/22 06:28:24;;;;;;;44.40;21.13;;;;;;;14.07;100.00;102099.25;5002547;28;20563;-74
2021/09/22 06:30:49;;;;;;;34.83;20.13;;;;;;;14.03;100.00;102103.59;5006774;28;20223;-74
2021/09/22 06:33:15;;;;;;;51.10;20.73;;;;;;;14.25;100.00;102105.16;5006255;28;20180;-73
2021/09/22 06:35:50;;;;;;;37.37;21.00;;;;;;;14.38;100.00;102104.72;4988679;28;20319;-74
2021/09/22 06:38:21;;;;;;;28.00;19.97;;;;;;;14.41;100.00;102104.22;5014397;28;20259;-74
2021/09/22 06:40:53;;;;;;;29.33;20.07;;;;;;;14.41;100.00;102106.09;4998200;28;20216;-74
2021/09/22 06:43:19;;;;;;;30.90;20.87;;;;;;;14.24;100.00;102106.22;4990510;28;20578;-73
2021/09/22 06:45:49;;;;;;;29.57;20.90;;;;;;;14.30;100.00;102105.22;4977912;28;20225;-74
2021/09/22 06:48:19;;;;;;;28.97;20.40;;;;;;;14.42;100.00;102103.09;4995131;28;20186;-74
2021/09/22 06:50:45;;;;;;;28.83;20.17;;;;;;;14.42;100.00;102105.84;5013922;28;20682;-74
2021/09/22 06:53:11;;;;;;;32.67;20.63;;;;;;;14.57;100.00;102111.41;4978124;28;20195;-74
2021/09/22 06:55:39;;;;;;;30.03;20.17;;;;;;;14.37;100.00;102119.47;5015076;28;20227;-73
2021/09/22 06:58:09;;;;;;;31.17;21.03;;;;;;;14.65;100.00;102116.38;5018345;28;20215;-75
2021/09/22 07:00:35;;;;;;;30.40;21.53;;;;;;;14.62;100.00;102119.66;4983020;28;20212;-75
2021/09/22 07:03:14;;;;;;;32.67;21.83;;;;;;;14.89;100.00;102117.63;5030615;28;20275;-76
2021/09/22 07:05:45;;;;;;;34.50;22.23;;;;;;;15.00;100.00;102117.44;5008730;28;20228;-76
2021/09/22 07:08:11;;;;;;;35.23;22.43;;;;;;;15.13;100.00;102104.13;4978606;28;20188;-75
2021/09/22 07:10:37;;;;;;;30.80;20.23;;;;;;;14.99;100.00;102104.03;4980629;28;20208;-76
2021/09/22 07:13:03;;;;;;;30.25;18.95;;;;;;;14.84;100.00;102117.63;5014063;28;20253;-73
2021/09/22 07:15:29;;;;;;;27.55;19.45;;;;;;;14.80;100.00;102111.84;5011647;28;20227;-74
2021/09/22 07:17:55;;;;;;;29.20;18.87;;;;;;;14.92;100.00;102117.13;4977662;28;20200;-75
2021/09/22 07:20:23;;;;;;;25.87;18.73;;;;;;;15.18;100.00;102115.13;4993567;28;20185;-75
2021/09/22 07:22:48;;;;;;;25.88;18.33;;;;;;;15.12;100.00;102124.34;4993836;28;20173;-74
2021/09/22 07:25:19;;;;;;;28.75;19.73;;;;;;;15.28;100.00;102123.38;4993492;28;20213;-74
2021/09/22 07:27:44;;;;;;;27.30;19.05;;;;;;;15.22;100.00;102118.97;5001255;28;20192;-74
2021/09/22 07:30:13;;;;;;;27.90;18.97;;;;;;;15.29;100.00;102133.25;5014668;28;20757;-74
2021/09/22 07:32:40;;;;;;;23.53;17.97;;;;;;;15.29;100.00;102138.72;5001918;28;20716;-75
2021/09/22 07:35:05;;;;;;;25.47;18.77;;;;;;;15.21;100.00;102128.25;5033141;28;20218;-74
2021/09/22 07:37:34;;;;;;;27.00;16.37;;;;;;;14.98;100.00;102129.72;5017548;28;20721;-74
2021/09/22 07:40:02;;;;;;;22.17;16.83;;;;;;;15.14;100.00;102135.06;5013160;28;20195;-75
2021/09/22 07:42:29;;;;;;;26.33;17.43;;;;;;;15.22;100.00;102129.91;5024348;28;20751;-75
2021/09/22 07:44:55;;;;;;;25.80;17.17;;;;;;;15.33;100.00;102131.59;4998072;28;20204;-74
2021/09/22 07:47:20;;;;;;;22.67;16.90;;;;;;;15.67;100.00;102135.56;5012964;28;20357;-75
2021/09/22 07:49:46;;;;;;;26.37;16.53;;;;;;;15.72;100.00;102136.41;5029637;28;20188;-75
2021/09/22 07:52:14;;;;;;;26.97;15.87;;;;;;;15.67;100.00;102132.81;5012488;28;20262;-75
2021/09/22 07:54:40;;;;;;;24.20;15.73;;;;;;;15.76;100.00;102129.28;5007612;28;20918;-74
2021/09/22 07:57:06;;;;;;;23.00;16.13;;;;;;;15.65;100.00;102132.28;5016082;28;20303;-75
2021/09/22 07:59:34;;;;;;;25.75;16.25;;;;;;;15.72;100.00;102135.59;5011525;28;20212;-75
2021/09/22 08:02:01;;;;;;;21.83;15.02;;;;;;;15.73;100.00;102132.53;5008459;28;20779;-74
2021/09/22 08:04:26;;;;;;;23.35;15.38;;;;;;;15.37;100.00;102138.19;5013315;28;20698;-75
2021/09/22 08:06:52;;;;;;;23.60;15.23;;;;;;;15.46;100.00;102136.59;5015451;28;20220;-76
2021/09/22 08:09:18;;;;;;;22.77;15.80;;;;;;;15.70;100.00;102135.84;5013104;28;20283;-74
2021/09/22 08:11:46;;;;;;;23.50;14.77;;;;;;;15.63;100.00;102134.44;5013208;28;20224;-74
2021/09/22 08:14:11;;;;;;;24.23;15.05;;;;;;;15.55;100.00;102135.81;5012830;28;20212;-75
2021/09/22 08:16:37;;;;;;;24.25;15.18;;;;;;;15.64;100.00;102138.81;5020098;28;20221;-75
2021/09/22 08:19:03;;;;;;;24.50;15.63;;;;;;;15.45;100.00;102146.69;5012942;28;20645;-74
2021/09/22 08:21:31;;;;;;;20.70;14.88;;;;;;;15.50;100.00;102146.72;5012364;28;20568;-73
2021/09/22 08:23:59;;;;;;;22.33;15.32;;;;;;;15.75;100.00;102145.97;5009745;28;20209;-75
2021/09/22 08:26:28;;;;;;;24.93;16.53;;;;;;;15.84;100.00;102143.28;5001347;28;20220;-74
2021/09/22 08:28:54;;;;;;;24.38;17.13;;;;;;;15.76;100.00;102147.66;5009508;28;20189;-74
2021/09/22 08:31:19;;;;;;;25.27;17.10;;;;;;;15.79;100.00;102136.97;4977090;28;20256;-73
2021/09/22 08:33:45;;;;;;;24.33;16.63;;;;;;;15.92;100.00;102145.50;5020667;28;20191;-74
2021/09/22 08:36:12;;;;;;;24.25;17.70;;;;;;;15.96;100.00;102135.63;5015862;28;20270;-74
2021/09/22 08:38:40;;;;;;;26.25;17.40;;;;;;;15.96;100.00;102140.28;5000487;28;20176;-75
2021/09/22 08:41:10;;;;;;;25.63;17.30;;;;;;;16.28;100.00;102138.97;5012819;28;20701;-74
2021/09/22 08:43:36;;;;;;;24.83;17.38;;;;;;;16.27;100.00;102131.88;5028950;28;20641;-74
2021/09/22 08:46:06;;;;;;;24.77;18.27;;;;;;;16.30;100.00;102117.59;5032535;28;20281;-75
2021/09/22 08:48:32;;;;;;;24.13;17.25;;;;;;;16.42;100.00;102118.16;5002153;28;20185;-73
2021/09/22 08:50:58;;;;;;;26.27;18.25;;;;;;;16.77;100.00;102108.75;4980120;28;20724;-75
2021/09/22 08:53:26;;;;;;;24.70;18.48;;;;;;;17.09;100.00;102109.25;5009837;28;20180;-75
2021/09/22 08:55:51;;;;;;;24.20;18.00;;;;;;;17.12;100.00;102103.19;5022380;28;20220;-74
2021/09/22 08:58:17;;;;;;;24.38;18.60;;;;;;;16.59;100.00;102103.88;5004283;28;20209;-74
2021/09/22 09:00:44;;;;;;;25.50;17.98;;;;;;;16.64;100.00;102101.09;5012530;28;20216;-74
2021/09/22 09:03:28;;;;;;;24.75;18.70;;;;;;;16.79;100.00;102101.06;5006209;28;20176;-73
2021/09/22 09:06:25;;;;;;;22.90;18.20;;;;;;;17.41;100.00;102103.09;5032489;28;20585;-75
2021/09/22 09:08:55;;;;;;;21.75;17.92;;;;;;;17.72;100.00;102088.09;4997988;28;20209;-76
2021/09/22 09:11:29;;;;;;;23.63;18.38;;;;;;;17.66;100.00;102088.41;4980242;28;20225;-74
2021/09/22 09:14:00;;;;;;;19.60;16.30;;;;;;;17.57;100.00;102098.34;5011252;28;20679;-73
2021/09/22 09:16:37;;;;;;;16.33;14.10;;;;;;;18.05;100.00;102092.81;5009013;28;20231;-73
2021/09/22 09:19:20;;;;;;;17.30;13.20;;;;;;;17.74;100.00;102094.94;5013747;28;20195;-75
2021/09/22 09:22:08;;;;;;;14.38;10.98;;;;;;;17.49;100.00;102091.53;4997728;28;20217;-73
2021/09/22 09:24:37;;;;;;;10.98;9.13;;;;;;;17.91;100.00;102080.81;5015950;28;20211;-73
2021/09/22 09:27:30;;;;;;;11.48;9.50;;;;;;;17.97;100.00;102086.00;5020916;28;20699;-74
2021/09/22 09:29:58;;;;;;;14.25;8.63;;;;;;;17.79;100.00;102083.09;5025063;28;20212;-74
2021/09/22 09:32:28;;;;;;;12.10;7.78;;;;;;;17.84;100.00;102091.31;4998982;28;20223;-74
2021/09/22 09:35:19;;;;;;;9.20;7.03;;;;;;;17.88;100.00;102086.91;5015004;28;20208;-75
2021/09/22 09:37:49;;;;;;;9.45;6.72;;;;;;;17.97;100.00;102085.19;5014069;28;20223;-74
2021/09/22 09:40:25;;;;;;;10.88;5.85;;;;;;;18.36;100.00;102073.88;5011611;28;20189;-73
2021/09/22 09:43:01;;;;;;;7.07;4.68;;;;;;;18.96;100.00;102080.41;4979690;28;20195;-73
2021/09/22 09:45:37;;;;;;;7.05;3.58;;;;;;;18.62;100.00;102078.03;4979363;28;20225;-75
2021/09/22 09:48:06;;;;;;;8.55;4.20;;;;;;;18.83;100.00;102082.19;4997101;28;20184;-75
2021/09/22 09:50:52;;;;;;;7.70;4.03;;;;;;;18.92;100.00;102079.34;5031504;28;20220;-74
2021/09/22 09:53:34;;;;;;;6.82;2.80;;;;;;;18.81;100.00;102084.44;4996958;28;20334;-74
2021/09/22 09:56:04;;;;;;;4.63;2.35;;;;;;;18.69;100.00;102084.00;4999633;28;20220;-74
2021/09/22 09:58:42;;;;;;;6.75;2.63;;;;;;;17.89;100.00;102083.03;5019618;28;20734;-74
2021/09/22 10:01:09;;;;;;;6.72;2.67;;;;;;;17.96;100.00;102091.78;4979105;28;20295;-75
2021/09/22 10:03:35;;;;;;;5.95;2.55;;;;;;;18.06;100.00;102080.69;4998437;28;20173;-75
2021/09/22 10:06:06;;;;;;;5.60;2.08;;;;;;;18.28;100.00;102073.69;5011365;28;20215;-74
2021/09/22 10:08:31;;;;;;;5.95;2.40;;;;;;;18.71;100.00;102079.03;5014745;28;20184;-77
2021/09/22 10:11:03;;;;;;;5.75;1.80;;;;;;;18.51;100.00;102076.47;5014379;28;20223;-73
2021/09/22 10:13:29;;;;;;;5.53;1.80;;;;;;;18.69;100.00;102073.81;4997376;28;20181;-74
2021/09/22 10:15:54;;;;;;;6.65;1.90;;;;;;;18.82;100.00;102083.31;4994438;28;20217;-76
2021/09/22 10:18:20;;;;;;;6.20;1.90;;;;;;;18.54;100.00;102073.16;4979215;28;20647;-74
2021/09/22 10:20:46;;;;;;;3.85;2.00;;;;;;;18.65;100.00;102071.94;4998004;28;20216;-75
2021/09/22 10:23:14;;;;;;;4.72;2.00;;;;;;;18.76;100.00;102079.00;4998928;28;20188;-74
2021/09/22 10:25:40;;;;;;;4.30;1.85;;;;;;;19.00;100.00;102075.97;4991883;28;20333;-74
2021/09/22 10:28:07;;;;;;;4.22;2.03;;;;;;;19.27;100.00;102070.69;5011123;28;20169;-74
2021/09/22 10:30:43;;;;;;;4.93;1.60;;;;;;;19.42;100.00;102064.97;5004163;28;20251;-74
2021/09/22 10:33:26;;;;;;;4.60;1.85;;;;;;;19.20;100.00;102081.25;5015240;28;20261;-74
2021/09/22 10:35:59;;;;;;;3.90;1.48;;;;;;;19.15;100.00;102084.06;5009882;28;20572;-73
2021/09/22 10:38:27;;;;;;;4.85;1.67;;;;;;;19.14;100.00;102079.69;4994659;28;20184;-74
2021/09/22 10:40:56;;;;;;;4.65;1.63;;;;;;;19.27;100.00;102069.84;5012514;28;20219;-74
2021/09/22 10:43:27;;;;;;;3.28;1.40;;;;;;;19.34;100.00;102062.91;5015001;28;20184;-74
2021/09/22 10:45:56;;;;;;;4.35;1.63;;;;;;;19.67;93.67;102069.03;4995477;28;20220;-76
2021/09/22 10:48:23;;;;;;;3.42;1.40;;;;;;;19.86;96.79;102061.59;5013713;28;20188;-75
2021/09/22 10:50:52;;;;;;;1.83;1.05;;;;;;;20.27;94.42;102063.38;4994182;28;20216;-75
2021/09/22 10:53:30;;;;;;;2.58;1.25;;;;;;;19.52;93.98;102073.09;5011129;28;20240;-75
2021/09/22 10:55:59;;;;;;;5.22;1.70;;;;;;;19.19;98.42;102071.31;5022491;28;20812;-74
2021/09/22 10:58:31;;;;;;;2.70;1.55;;;;;;;19.43;100.00;102072.13;5021196;28;20187;-73
2021/09/22 11:00:59;;;;;;;2.55;1.40;;;;;;;19.65;95.34;102067.69;5009760;28;20267;-74
2021/09/22 11:03:52;;;;;;;4.10;1.70;;;;;;;19.56;95.62;102068.63;5009277;28;20275;-75
2021/09/22 11:06:42;;;;;;;4.30;1.45;;;;;;;19.52;94.86;102062.88;5014616;28;20240;-74
2021/09/22 11:09:10;;;;;;;4.72;1.50;;;;;;;19.37;92.38;102062.28;4993852;28;20242;-74
2021/09/22 11:14:27;;;;;;;3.97;1.40;;;;;;;19.18;96.52;102050.41;5026662;28;20196;-75
2021/09/22 11:16:55;;;;;;;3.38;1.30;;;;;;;18.90;95.69;102053.22;5015773;28;20225;-76
2021/09/22 11:19:23;;;;;;;2.88;1.40;;;;;;;19.21;95.76;102055.34;4998440;28;20753;-75
2021/09/22 11:21:49;;;;;;;1.92;1.10;;;;;;;19.19;97.75;102041.03;4997270;28;20213;-76
2021/09/22 11:24:22;;;;;;;4.45;1.50;;;;;;;19.79;94.38;102041.81;4996543;28;20303;-74
2021/09/22 11:26:56;;;;;;;3.63;1.17;;;;;;;19.76;88.75;102028.63;5007144;28;20220;-75
2021/09/22 11:29:39;;;;;;;3.65;1.50;;;;;;;19.81;90.82;102030.47;5024473;28;20229;-76